createdAt,value
2023-01-13T00:01:38.428Z,152.82
2023-01-13T00:04:06.777Z,132.80
2023-01-13T00:06:35.455Z,144.77
2023-01-13T00:09:04.020Z,147.50
2023-01-13T00:11:35.535Z,111.68
2023-01-13T00:14:05.491Z,106.68
2023-01-13T00:16:34.148Z,105.70
2023-01-13T00:19:02.829Z,105.50
2023-01-13T00:21:31.442Z,107.63
2023-01-13T00:24:01.059Z,94.80
2023-01-13T00:26:34.001Z,85.85
2023-01-13T00:29:02.778Z,82.35
2023-01-13T00:31:32.394Z,87.72
2023-01-13T00:34:04.824Z,86.60
2023-01-13T00:36:33.439Z,84.35
2023-01-13T00:39:03.166Z,87.43
2023-01-13T00:41:52.629Z,82.28
2023-01-13T00:44:20.206Z,79.60
2023-01-13T00:46:50.246Z,79.57
2023-01-13T00:49:18.993Z,79.40
2023-01-13T00:51:47.804Z,77.75
2023-01-13T00:54:16.151Z,79.53
2023-01-13T00:56:44.673Z,77.80
2023-01-13T00:59:17.157Z,87.45
2023-01-13T01:01:47.054Z,88.57
2023-01-13T01:04:17.004Z,85.55
2023-01-13T01:06:45.404Z,90.00
2023-01-13T01:09:17.191Z,85.22
2023-01-13T01:11:46.463Z,79.82
2023-01-13T01:14:17.809Z,87.60
2023-01-13T01:16:50.231Z,84.32
2023-01-13T01:19:20.461Z,82.22
2023-01-13T01:21:48.874Z,100.22
2023-01-13T01:24:20.137Z,98.57
2023-01-13T01:26:48.683Z,107.57
2023-01-13T01:29:19.793Z,106.38
2023-01-13T01:31:48.408Z,101.35
2023-01-13T01:34:17.505Z,97.57
2023-01-13T01:36:49.415Z,92.43
2023-01-13T01:39:19.185Z,93.03
2023-01-13T01:42:01.463Z,99.55
2023-01-13T01:47:20.280Z,87.03
2023-01-13T01:49:49.843Z,83.15
2023-01-13T01:52:25.428Z,91.07
2023-01-13T01:54:58.592Z,90.72
2023-01-13T01:57:31.104Z,98.90
2023-01-13T02:00:01.592Z,100.07
2023-01-13T02:02:31.724Z,91.43
2023-01-13T02:05:01.929Z,94.05
2023-01-13T02:07:34.938Z,86.60
2023-01-13T02:10:08.659Z,82.38
2023-01-13T02:12:38.611Z,79.68
2023-01-13T02:15:12.891Z,75.13
2023-01-13T02:18:07.120Z,78.50
2023-01-13T02:21:10.695Z,83.85
2023-01-13T02:24:28.145Z,77.72
2023-01-13T02:27:28.410Z,76.75
2023-01-13T02:30:25.807Z,79.00
2023-01-13T02:33:05.582Z,76.28
2023-01-13T02:35:41.163Z,79.85
2023-01-13T02:38:12.667Z,82.80
2023-01-13T02:40:48.946Z,82.75
2023-01-13T02:43:40.179Z,85.03
2023-01-13T02:46:16.210Z,79.68
2023-01-13T02:48:46.985Z,85.18
2023-01-13T02:51:19.038Z,75.47
2023-01-13T02:56:18.801Z,68.90
2023-01-13T02:58:48.311Z,71.82
2023-01-13T03:01:19.765Z,66.78
2023-01-13T03:03:51.087Z,68.75
2023-01-13T03:06:32.118Z,68.10
2023-01-13T03:09:08.943Z,64.45
2023-01-13T03:11:53.429Z,67.53
2023-01-13T03:14:39.278Z,67.20
2023-01-13T03:17:28.321Z,67.43
2023-01-13T03:20:07.613Z,72.68
2023-01-13T03:22:46.232Z,65.30
2023-01-13T03:25:19.589Z,60.95
2023-01-13T03:27:52.565Z,62.88
2023-01-13T03:30:24.786Z,60.03
2023-01-13T03:33:01.149Z,58.05
2023-01-13T03:35:36.696Z,59.75
2023-01-13T03:38:11.262Z,62.97
2023-01-13T03:40:47.843Z,61.22
2023-01-13T03:43:39.638Z,69.25
2023-01-13T03:46:18.500Z,72.18
2023-01-13T03:48:53.838Z,75.00
2023-01-13T03:51:27.075Z,70.88
2023-01-13T03:53:59.241Z,74.00
2023-01-13T03:56:32.455Z,74.20
2023-01-13T03:59:05.033Z,73.13
2023-01-13T04:01:37.241Z,74.60
2023-01-13T04:04:08.730Z,69.43
2023-01-13T04:06:43.661Z,61.33
2023-01-13T04:09:20.803Z,59.17
2023-01-13T04:11:54.625Z,63.88
2023-01-13T04:14:25.892Z,59.08
2023-01-13T04:16:54.644Z,64.68
2023-01-13T04:19:25.683Z,56.22
2023-01-13T04:21:55.214Z,54.65
2023-01-13T04:24:27.554Z,59.17
2023-01-13T04:26:58.553Z,60.88
2023-01-13T04:29:27.358Z,63.88
2023-01-13T04:31:56.555Z,57.28
2023-01-13T04:34:28.398Z,53.17
2023-01-13T04:36:57.406Z,52.70
2023-01-13T04:39:25.608Z,54.25
2023-01-13T04:42:01.575Z,47.75
2023-01-13T04:44:32.690Z,50.30
2023-01-13T04:47:01.111Z,49.72
2023-01-13T04:49:33.545Z,55.42
2023-01-13T04:52:08.959Z,51.42
2023-01-13T04:54:37.398Z,51.30
2023-01-13T04:57:06.158Z,52.35
2023-01-13T04:59:34.815Z,46.58
2023-01-13T05:02:05.542Z,56.53
2023-01-13T05:04:35.632Z,51.30
2023-01-13T05:07:04.029Z,47.65
2023-01-13T05:09:32.530Z,46.85
2023-01-13T05:12:18.146Z,45.78
2023-01-13T05:15:05.197Z,46.72
2023-01-13T05:17:34.490Z,48.05
2023-01-13T05:20:11.132Z,46.40
2023-01-13T05:22:56.652Z,45.72
2023-01-13T05:25:28.298Z,51.80
2023-01-13T05:28:01.044Z,51.70
2023-01-13T05:30:37.531Z,60.70
2023-01-13T05:33:08.347Z,53.78
2023-01-13T05:35:39.866Z,59.47
2023-01-13T05:38:08.621Z,61.63
2023-01-13T05:40:58.165Z,62.90
2023-01-13T05:43:30.729Z,55.40
2023-01-13T05:46:01.629Z,62.13
2023-01-13T05:48:33.310Z,56.35
2023-01-13T05:51:07.891Z,57.47
2023-01-13T05:53:37.940Z,60.80
2023-01-13T05:56:07.179Z,54.22
2023-01-13T05:58:36.650Z,57.33
2023-01-13T06:01:08.867Z,52.28
2023-01-13T06:03:40.708Z,54.65
2023-01-13T06:06:12.414Z,59.47
2023-01-13T06:08:44.065Z,54.15
2023-01-13T06:13:45.418Z,56.38
2023-01-13T06:16:14.010Z,56.60
2023-01-13T06:18:42.328Z,54.45
2023-01-13T06:21:13.695Z,55.92
2023-01-13T06:23:43.629Z,57.08
2023-01-13T06:26:17.718Z,59.10
2023-01-13T06:28:46.543Z,51.65
2023-01-13T06:31:15.307Z,56.22
2023-01-13T06:33:49.273Z,57.72
2023-01-13T06:36:24.032Z,57.35
2023-01-13T06:38:55.844Z,61.78
2023-01-13T06:41:38.714Z,66.60
2023-01-13T06:44:07.319Z,58.30
2023-01-13T06:46:36.013Z,64.68
2023-01-13T06:49:08.044Z,63.50
2023-01-13T06:51:38.609Z,62.30
2023-01-13T06:54:07.597Z,69.25
2023-01-13T06:56:36.607Z,73.22
2023-01-13T06:59:06.902Z,71.53
2023-01-13T07:01:41.090Z,73.10
2023-01-13T07:04:13.801Z,73.03
2023-01-13T07:06:44.944Z,71.25
2023-01-13T07:09:14.299Z,71.93
2023-01-13T07:11:45.856Z,72.32
2023-01-13T07:14:36.054Z,71.75
2023-01-13T07:17:06.343Z,70.82
2023-01-13T07:19:36.221Z,70.03
2023-01-13T07:22:07.721Z,66.03
2023-01-13T07:24:41.076Z,60.28
2023-01-13T07:27:11.183Z,56.53
2023-01-13T07:29:44.082Z,54.78
2023-01-13T07:32:15.675Z,57.42
2023-01-13T07:34:44.046Z,54.28
2023-01-13T07:37:15.593Z,53.25
2023-01-13T07:39:48.137Z,51.33
2023-01-13T07:42:43.400Z,47.55
2023-01-13T07:45:14.935Z,49.45
2023-01-13T07:47:52.571Z,50.65
2023-01-13T07:50:28.607Z,47.75
2023-01-13T07:53:03.456Z,49.30
2023-01-13T07:55:34.842Z,50.67
2023-01-13T07:58:04.136Z,52.10
2023-01-13T08:00:34.714Z,53.20
2023-01-13T08:03:03.580Z,52.20
2023-01-13T08:05:33.220Z,53.47
2023-01-13T08:08:06.611Z,47.40
2023-01-13T08:10:38.253Z,49.95
2023-01-13T08:13:21.552Z,50.88
2023-01-13T08:15:52.493Z,45.88
2023-01-13T08:18:23.110Z,53.30
2023-01-13T08:20:53.202Z,48.53
2023-01-13T08:23:25.804Z,48.78
2023-01-13T08:25:54.269Z,45.70
2023-01-13T08:28:24.293Z,46.15
2023-01-13T08:30:55.647Z,47.60
2023-01-13T08:33:23.929Z,43.92
2023-01-13T08:35:53.488Z,49.67
2023-01-13T08:38:26.052Z,43.80
2023-01-13T08:40:58.685Z,48.83
2023-01-13T08:43:27.362Z,41.70
2023-01-13T08:46:01.084Z,46.55
2023-01-13T08:48:31.627Z,44.13
2023-01-13T08:51:05.034Z,45.72
2023-01-13T08:53:44.856Z,44.47
2023-01-13T08:56:14.991Z,47.53
2023-01-13T08:58:43.910Z,45.17
2023-01-13T09:01:19.576Z,49.97
2023-01-13T09:03:49.030Z,48.45
2023-01-13T09:06:17.570Z,43.53
2023-01-13T09:08:50.959Z,44.20
2023-01-13T09:11:39.338Z,42.45
2023-01-13T09:14:08.132Z,48.05
2023-01-13T09:16:36.779Z,49.25
2023-01-13T09:19:05.672Z,48.53
2023-01-13T09:21:34.872Z,46.13
2023-01-13T09:24:05.441Z,45.80
2023-01-13T09:26:34.443Z,50.25
2023-01-13T09:29:02.912Z,43.75
2023-01-13T09:31:34.654Z,44.80
2023-01-13T09:34:20.421Z,49.35
2023-01-13T09:36:56.385Z,45.00
2023-01-13T09:39:26.263Z,42.30
2023-01-13T09:42:15.372Z,45.20
2023-01-13T09:44:55.067Z,48.08
2023-01-13T09:47:27.947Z,45.92
2023-01-13T09:50:08.276Z,44.30
2023-01-13T09:52:39.575Z,43.38
2023-01-13T09:55:16.188Z,41.00
2023-01-13T09:57:45.015Z,40.00
2023-01-13T10:00:20.974Z,39.67
2023-01-13T10:03:19.614Z,38.45
2023-01-13T10:05:56.609Z,39.88
2023-01-13T10:08:28.117Z,34.83
2023-01-13T10:11:00.831Z,38.88
2023-01-13T10:13:31.119Z,45.58
2023-01-13T10:16:14.349Z,40.35
2023-01-13T10:18:55.365Z,38.97
2023-01-13T10:21:47.679Z,39.20
2023-01-13T10:24:23.361Z,43.60
2023-01-13T10:27:02.906Z,35.63
2023-01-13T10:29:34.721Z,35.88
2023-01-13T10:32:06.536Z,35.58
2023-01-13T10:34:48.690Z,37.75
2023-01-13T10:37:28.330Z,39.08
2023-01-13T10:40:01.033Z,32.53
2023-01-13T10:42:30.945Z,33.50
2023-01-13T10:45:01.744Z,35.25
2023-01-13T10:47:32.241Z,33.67
2023-01-13T10:50:03.797Z,35.42
2023-01-13T10:52:37.078Z,33.25
2023-01-13T10:55:23.790Z,36.38
2023-01-13T10:57:54.239Z,35.65
2023-01-13T11:00:31.257Z,31.30
2023-01-13T11:03:16.312Z,34.00
2023-01-13T11:05:56.619Z,36.22
2023-01-13T11:08:27.721Z,40.30
2023-01-13T11:10:58.950Z,33.78
2023-01-13T11:13:36.080Z,36.70
2023-01-13T11:16:10.760Z,40.10
2023-01-13T11:19:02.394Z,35.95
2023-01-13T11:21:36.683Z,36.72
2023-01-13T11:24:16.602Z,38.75
2023-01-13T11:26:51.659Z,39.22
2023-01-13T11:29:31.232Z,36.58
2023-01-13T11:32:09.758Z,37.80
2023-01-13T11:34:41.545Z,38.42
2023-01-13T11:37:17.389Z,41.30
2023-01-13T11:39:53.908Z,41.30
2023-01-13T11:42:27.892Z,36.63
2023-01-13T11:45:05.972Z,37.67
2023-01-13T11:47:36.900Z,37.70
2023-01-13T11:50:15.150Z,37.77
2023-01-13T11:53:01.609Z,36.22
2023-01-13T11:55:40.257Z,40.70
2023-01-13T11:58:51.305Z,39.95
2023-01-13T12:01:43.165Z,40.28
2023-01-13T12:04:25.896Z,40.03
2023-01-13T12:07:07.925Z,44.22
2023-01-13T12:09:46.120Z,45.63
2023-01-13T12:12:23.206Z,43.40
2023-01-13T12:15:20.469Z,43.15
2023-01-13T12:18:03.789Z,44.72
2023-01-13T12:20:38.575Z,43.38
2023-01-13T12:23:12.847Z,47.80
2023-01-13T12:25:46.976Z,45.63
2023-01-13T12:28:18.432Z,49.08
2023-01-13T12:30:52.468Z,46.45
2023-01-13T12:33:30.804Z,45.25
2023-01-13T12:36:07.004Z,45.10
2023-01-13T12:38:38.541Z,46.28
2023-01-13T12:41:17.513Z,44.60
2023-01-13T12:44:07.420Z,45.65
2023-01-13T12:46:57.398Z,43.97
2023-01-13T12:49:32.524Z,39.50
2023-01-13T12:52:19.898Z,43.28
2023-01-13T12:55:21.016Z,49.58
2023-01-13T12:58:01.110Z,43.97
2023-01-13T13:00:39.552Z,45.95
2023-01-13T13:03:31.912Z,44.97
2023-01-13T13:06:19.670Z,46.03
2023-01-13T13:09:03.328Z,48.97
2023-01-13T13:12:02.029Z,50.83
2023-01-13T13:15:03.855Z,45.25
2023-01-13T13:17:46.659Z,48.83
2023-01-13T13:20:54.032Z,48.50
2023-01-13T13:23:43.967Z,49.28
2023-01-13T13:26:26.399Z,45.80
2023-01-13T13:29:10.238Z,45.67
2023-01-13T13:31:56.848Z,60.58
2023-01-13T13:34:31.855Z,44.88
2023-01-13T13:37:30.591Z,50.35
2023-01-13T13:40:22.216Z,46.80
2023-01-13T13:43:25.848Z,44.80
2023-01-13T13:46:12.053Z,46.50
2023-01-13T13:48:40.726Z,46.88
2023-01-13T13:51:27.726Z,45.15
2023-01-13T13:53:59.378Z,43.10
2023-01-13T13:56:33.680Z,42.13
2023-01-13T13:59:02.550Z,43.17
2023-01-13T14:01:36.715Z,43.45
2023-01-13T14:04:12.240Z,42.72
2023-01-13T14:06:51.292Z,43.25
2023-01-13T14:09:21.124Z,44.75
2023-01-13T14:12:03.080Z,48.47
2023-01-13T14:14:31.684Z,44.63
2023-01-13T14:17:01.276Z,50.95
2023-01-13T14:19:33.259Z,47.33
2023-01-13T14:22:05.035Z,48.38
2023-01-13T14:24:34.295Z,48.35
2023-01-13T14:27:12.375Z,46.72
2023-01-13T14:29:44.182Z,47.47
2023-01-13T14:32:16.688Z,47.60
2023-01-13T14:34:45.300Z,48.72
2023-01-13T14:37:32.908Z,50.15
2023-01-13T14:40:02.899Z,47.70
2023-01-13T14:42:35.822Z,51.35
2023-01-13T14:45:05.197Z,49.70
2023-01-13T14:47:34.760Z,52.88
2023-01-13T14:50:07.014Z,50.83
2023-01-13T14:52:38.333Z,55.35
2023-01-13T14:55:29.829Z,57.87
2023-01-13T14:58:29.672Z,58.70
2023-01-13T15:01:39.597Z,63.92
2023-01-13T15:04:17.954Z,62.45
2023-01-13T15:06:51.870Z,68.35
2023-01-13T15:09:26.071Z,65.30
2023-01-13T15:11:56.315Z,59.80
2023-01-13T15:14:31.331Z,62.38
2023-01-13T15:17:00.061Z,58.08
2023-01-13T15:19:28.804Z,58.50
2023-01-13T15:21:57.326Z,65.78
2023-01-13T15:24:25.988Z,61.42
2023-01-13T15:26:55.387Z,63.08
2023-01-13T15:29:25.360Z,61.70
2023-01-13T15:31:54.217Z,59.47
2023-01-13T15:34:27.957Z,61.42
2023-01-13T15:36:56.746Z,61.78
2023-01-13T15:39:25.558Z,66.40
2023-01-13T15:42:11.881Z,62.03
2023-01-13T15:44:59.067Z,63.97
2023-01-13T15:47:30.067Z,63.95
2023-01-13T15:49:59.421Z,58.00
2023-01-13T15:52:29.630Z,55.30
2023-01-13T15:54:58.419Z,55.58
2023-01-13T15:57:29.215Z,51.17
2023-01-13T16:00:01.527Z,53.15
2023-01-13T16:02:31.107Z,50.00
2023-01-13T16:04:59.650Z,51.28
2023-01-13T16:07:28.195Z,50.47
2023-01-13T16:09:58.008Z,49.78
2023-01-13T16:12:26.413Z,47.90
2023-01-13T16:14:54.790Z,47.40
2023-01-13T16:17:30.838Z,47.28
2023-01-13T16:20:01.064Z,47.50
2023-01-13T16:22:29.640Z,47.08
2023-01-13T16:24:57.878Z,48.90
2023-01-13T16:27:27.469Z,51.55
2023-01-13T16:29:56.523Z,52.45
2023-01-13T16:32:26.333Z,46.58
2023-01-13T16:34:54.768Z,44.00
2023-01-13T16:37:25.252Z,45.92
2023-01-13T16:39:55.481Z,50.25
2023-01-13T16:42:24.366Z,44.95
2023-01-13T16:44:52.964Z,44.10
2023-01-13T16:47:22.829Z,48.20
2023-01-13T16:49:57.453Z,50.38
2023-01-13T16:52:25.907Z,48.63
2023-01-13T16:54:54.256Z,54.72
2023-01-13T16:57:22.857Z,53.47
2023-01-13T16:59:51.684Z,54.33
2023-01-13T17:02:21.123Z,55.22
2023-01-13T17:04:50.614Z,64.38
2023-01-13T17:07:20.409Z,56.58
2023-01-13T17:09:49.203Z,48.45
2023-01-13T17:12:18.053Z,57.38
2023-01-13T17:14:48.239Z,57.30
2023-01-13T17:17:28.844Z,50.03
2023-01-13T17:19:57.716Z,53.43
2023-01-13T17:22:27.746Z,49.70
2023-01-13T17:24:58.034Z,54.00
2023-01-13T17:27:26.791Z,52.15
2023-01-13T17:29:58.635Z,59.70
2023-01-13T17:35:02.767Z,61.88
2023-01-13T17:37:37.032Z,63.17
2023-01-13T17:40:07.833Z,67.93
2023-01-13T17:45:12.293Z,67.57
2023-01-13T17:47:47.409Z,66.70
2023-01-13T17:50:18.742Z,63.08
2023-01-13T17:52:50.617Z,64.40
2023-01-13T17:55:23.143Z,61.10
2023-01-13T17:57:51.760Z,58.47
2023-01-13T18:00:20.561Z,58.17
2023-01-13T18:02:52.370Z,57.47
2023-01-13T18:05:22.251Z,56.05
2023-01-13T18:07:55.231Z,55.45
2023-01-13T18:10:26.110Z,84.15
2023-01-13T18:12:56.402Z,73.50
2023-01-13T18:15:27.676Z,76.72
2023-01-13T18:17:58.662Z,71.75
2023-01-13T18:20:48.125Z,62.80
2023-01-13T18:23:40.365Z,59.97
2023-01-13T18:26:34.336Z,83.95
2023-01-13T18:29:05.299Z,88.28
2023-01-13T18:34:03.858Z,63.20
2023-01-13T18:36:33.468Z,62.30
2023-01-13T18:39:03.828Z,66.28
2023-01-13T18:41:50.568Z,56.92
2023-01-13T18:44:21.434Z,56.95
2023-01-13T18:46:50.176Z,57.05
2023-01-13T18:49:21.478Z,61.60
2023-01-13T18:51:50.948Z,58.03
2023-01-13T18:54:23.011Z,47.38
2023-01-13T18:56:54.544Z,56.00
2023-01-13T18:59:22.954Z,45.22
2023-01-13T19:01:56.575Z,45.05
2023-01-13T19:04:25.145Z,50.20
2023-01-13T19:07:00.263Z,53.80
2023-01-13T19:09:31.808Z,52.20
2023-01-13T19:12:01.368Z,48.80
2023-01-13T19:14:38.520Z,50.50
2023-01-13T19:17:10.188Z,45.08
2023-01-13T19:19:44.583Z,46.72
2023-01-13T19:22:16.638Z,49.53
2023-01-13T19:24:47.313Z,54.95
2023-01-13T19:27:19.551Z,53.00
2023-01-13T19:29:53.810Z,54.50
2023-01-13T19:32:25.153Z,57.55
2023-01-13T19:34:55.113Z,64.43
2023-01-13T19:37:34.580Z,65.00
2023-01-13T19:40:09.681Z,63.10
2023-01-13T19:42:59.377Z,68.60
2023-01-13T19:45:33.966Z,64.18
2023-01-13T19:48:05.849Z,64.55
2023-01-13T19:53:17.661Z,57.42
2023-01-13T19:55:50.693Z,60.92
2023-01-13T19:58:23.923Z,62.53
2023-01-13T20:00:58.642Z,59.75
2023-01-13T20:03:36.114Z,57.22
2023-01-13T20:06:09.920Z,64.05
2023-01-13T20:08:46.474Z,57.55
2023-01-13T20:11:31.167Z,58.90
2023-01-13T20:14:01.597Z,62.72
2023-01-13T20:16:33.070Z,63.92
2023-01-13T20:19:02.852Z,65.07
2023-01-13T20:21:31.718Z,60.50
2023-01-13T20:24:05.536Z,62.42
2023-01-13T20:26:37.335Z,59.42
2023-01-13T20:29:06.959Z,68.55
2023-01-13T20:31:35.853Z,65.25
2023-01-13T20:34:07.545Z,62.65
2023-01-13T20:36:43.587Z,62.45
2023-01-13T20:39:15.965Z,61.97
2023-01-13T20:42:07.046Z,60.10
2023-01-13T20:44:35.663Z,57.88
2023-01-13T20:47:04.593Z,59.28
2023-01-13T20:49:38.583Z,61.80
2023-01-13T20:52:10.741Z,73.88
2023-01-13T20:54:41.219Z,73.18
2023-01-13T20:57:11.898Z,74.50
2023-01-13T20:59:41.564Z,65.03
2023-01-13T21:02:14.856Z,64.88
2023-01-13T21:04:43.732Z,63.38
2023-01-13T21:07:12.424Z,59.03
2023-01-13T21:09:42.878Z,63.38
2023-01-13T21:12:34.732Z,63.42
2023-01-13T21:15:18.765Z,63.67
2023-01-13T21:18:07.100Z,60.60
2023-01-13T21:20:38.680Z,61.85
2023-01-13T21:23:08.487Z,60.17
2023-01-13T21:25:39.809Z,57.88
2023-01-13T21:28:11.955Z,58.70
2023-01-13T21:30:42.454Z,65.22
2023-01-13T21:33:14.387Z,64.35
2023-01-13T21:35:42.770Z,65.13
2023-01-13T21:38:13.795Z,69.88
2023-01-13T21:40:42.791Z,64.53
2023-01-13T21:43:34.173Z,65.97
2023-01-13T21:46:19.559Z,65.67
2023-01-13T21:48:49.122Z,61.60
2023-01-13T21:51:18.306Z,60.92
2023-01-13T21:53:49.543Z,60.85
2023-01-13T21:56:17.964Z,69.40
2023-01-13T21:58:52.650Z,71.93
2023-01-13T22:01:21.636Z,75.28
2023-01-13T22:04:18.092Z,73.68
2023-01-13T22:06:49.969Z,74.80
2023-01-13T22:09:20.879Z,72.10
2023-01-13T22:11:50.134Z,79.10
2023-01-13T22:14:22.947Z,87.95
2023-01-13T22:16:52.512Z,95.15
2023-01-13T22:19:21.041Z,90.93
2023-01-13T22:21:51.345Z,99.57
2023-01-13T22:24:19.618Z,98.03
2023-01-13T22:26:50.909Z,88.28
2023-01-13T22:29:21.576Z,81.78
2023-01-13T22:31:50.994Z,82.60
2023-01-13T22:34:19.479Z,88.03
2023-01-13T22:36:47.727Z,93.55
2023-01-13T22:39:20.248Z,94.07
2023-01-13T22:41:49.156Z,95.60
2023-01-13T22:44:19.867Z,94.35
2023-01-13T22:46:51.324Z,98.25
2023-01-13T22:49:21.096Z,97.10
2023-01-13T22:51:49.839Z,97.85
2023-01-13T22:54:19.028Z,101.13
2023-01-13T22:56:47.571Z,96.65
2023-01-13T22:59:18.271Z,98.63
2023-01-13T23:01:54.205Z,103.82
2023-01-13T23:04:24.294Z,94.93
2023-01-13T23:06:59.302Z,94.72
2023-01-13T23:09:30.872Z,91.18
2023-01-13T23:12:01.421Z,85.38
2023-01-13T23:14:30.006Z,81.03
2023-01-13T23:16:59.466Z,82.05
2023-01-13T23:19:35.503Z,82.22
2023-01-13T23:22:04.954Z,78.85
2023-01-13T23:24:34.590Z,90.03
2023-01-13T23:27:03.500Z,87.10
2023-01-13T23:29:33.584Z,87.40
2023-01-13T23:32:02.359Z,87.97
2023-01-13T23:34:34.099Z,79.55
2023-01-13T23:37:02.771Z,85.22
2023-01-13T23:39:31.249Z,82.85
2023-01-13T23:42:00.721Z,85.55
2023-01-13T23:44:30.912Z,74.85
2023-01-13T23:46:59.721Z,78.80
2023-01-13T23:49:35.986Z,76.13
2023-01-13T23:52:06.400Z,78.82
2023-01-13T23:54:41.001Z,84.80
2023-01-13T23:57:09.360Z,80.70
2023-01-13T23:59:42.252Z,98.38
